createdAt,value
2022-08-26T00:01:51.881Z,23.80
2022-08-26T00:04:19.215Z,23.70
2022-08-26T00:06:46.295Z,23.70
2022-08-26T00:09:16.329Z,23.70
2022-08-26T00:11:44.779Z,23.70
2022-08-26T00:14:13.806Z,23.60
2022-08-26T00:16:47.617Z,23.70
2022-08-26T00:19:17.862Z,23.60
2022-08-26T00:21:46.389Z,23.70
2022-08-26T00:24:15.845Z,23.60
2022-08-26T00:26:42.593Z,23.60
2022-08-26T00:29:09.640Z,23.60
2022-08-26T00:31:37.675Z,23.60
2022-08-26T00:34:05.619Z,23.50
2022-08-26T00:36:32.266Z,23.50
2022-08-26T00:38:59.080Z,23.50
2022-08-26T00:41:25.916Z,23.50
2022-08-26T00:43:52.995Z,23.40
2022-08-26T00:46:28.897Z,23.40
2022-08-26T00:49:04.158Z,23.50
2022-08-26T00:51:46.186Z,23.50
2022-08-26T00:54:15.010Z,23.40
2022-08-26T00:56:57.569Z,23.50
2022-08-26T00:59:27.448Z,23.30
2022-08-26T01:01:54.440Z,23.30
2022-08-26T01:04:23.633Z,23.40
2022-08-26T01:06:54.561Z,23.30
2022-08-26T01:09:21.902Z,23.30
2022-08-26T01:11:51.230Z,23.30
2022-08-26T01:14:20.603Z,23.30
2022-08-26T01:16:48.267Z,23.30
2022-08-26T01:19:37.479Z,23.20
2022-08-26T01:22:12.047Z,23.20
2022-08-26T01:24:40.156Z,23.20
2022-08-26T01:27:09.005Z,23.30
2022-08-26T01:29:38.384Z,23.30
2022-08-26T01:32:08.862Z,23.30
2022-08-26T01:34:37.866Z,23.30
2022-08-26T01:37:13.684Z,23.30
2022-08-26T01:39:43.484Z,23.20
2022-08-26T01:42:14.634Z,23.20
2022-08-26T01:44:47.505Z,23.20
2022-08-26T01:47:16.838Z,23.10
2022-08-26T01:49:45.671Z,23.10
2022-08-26T01:52:16.609Z,23.10
2022-08-26T01:54:43.501Z,23.10
2022-08-26T01:57:15.295Z,23.00
2022-08-26T01:59:42.707Z,23.00
2022-08-26T02:02:09.542Z,23.00
2022-08-26T02:04:41.500Z,23.00
2022-08-26T02:07:10.022Z,23.00
2022-08-26T02:09:41.585Z,23.00
2022-08-26T02:12:10.496Z,23.00
2022-08-26T02:14:43.723Z,23.00
2022-08-26T02:17:11.834Z,22.90
2022-08-26T02:19:45.107Z,22.90
2022-08-26T02:22:19.486Z,22.90
2022-08-26T02:24:58.354Z,22.90
2022-08-26T02:27:35.137Z,22.90
2022-08-26T02:30:17.132Z,22.90
2022-08-26T02:32:44.699Z,24.30
2022-08-26T02:35:18.335Z,22.80
2022-08-26T02:37:47.939Z,22.80
2022-08-26T02:40:18.283Z,22.80
2022-08-26T02:42:45.424Z,22.60
2022-08-26T02:45:12.796Z,22.60
2022-08-26T02:47:39.487Z,22.60
2022-08-26T02:50:06.816Z,22.60
2022-08-26T02:52:34.738Z,22.70
2022-08-26T02:55:01.503Z,22.70
2022-08-26T02:57:29.194Z,22.60
2022-08-26T02:59:55.831Z,22.60
2022-08-26T03:02:23.143Z,22.60
2022-08-26T03:04:57.506Z,22.60
2022-08-26T03:07:27.518Z,22.60
2022-08-26T03:09:54.184Z,22.60
2022-08-26T03:12:20.835Z,22.50
2022-08-26T03:14:48.576Z,22.40
2022-08-26T03:17:16.575Z,22.50
2022-08-26T03:19:43.286Z,22.40
2022-08-26T03:22:10.888Z,22.40
2022-08-26T03:24:37.723Z,22.40
2022-08-26T03:27:05.831Z,22.40
2022-08-26T03:29:52.362Z,22.40
2022-08-26T03:32:20.743Z,22.40
2022-08-26T03:34:47.360Z,22.40
2022-08-26T03:37:14.758Z,22.40
2022-08-26T03:39:41.763Z,22.40
2022-08-26T03:42:08.453Z,22.40
2022-08-26T03:44:40.098Z,22.40
2022-08-26T03:47:09.134Z,22.40
2022-08-26T03:49:36.117Z,21.80
2022-08-26T03:52:03.989Z,22.20
2022-08-26T03:54:30.740Z,22.20
2022-08-26T03:56:57.433Z,22.20
2022-08-26T03:59:24.115Z,22.30
2022-08-26T04:01:51.381Z,22.20
2022-08-26T04:04:18.179Z,22.30
2022-08-26T04:06:50.246Z,22.30
2022-08-26T04:09:21.003Z,22.30
2022-08-26T04:11:50.536Z,22.30
2022-08-26T04:14:20.785Z,22.30
2022-08-26T04:16:48.333Z,22.30
2022-08-26T04:19:16.592Z,22.30
2022-08-26T04:21:45.006Z,22.20
2022-08-26T04:24:13.926Z,22.20
2022-08-26T04:26:42.540Z,22.20
2022-08-26T04:29:17.587Z,22.20
2022-08-26T04:31:45.069Z,22.20
2022-08-26T04:34:11.838Z,22.10
2022-08-26T04:36:41.978Z,22.20
2022-08-26T04:39:12.132Z,22.20
2022-08-26T04:41:39.587Z,22.10
2022-08-26T04:44:07.169Z,22.20
2022-08-26T04:46:34.543Z,22.20
2022-08-26T04:49:01.898Z,22.10
2022-08-26T04:51:28.682Z,22.20
2022-08-26T04:53:59.168Z,22.20
2022-08-26T04:56:32.835Z,22.20
2022-08-26T04:59:01.171Z,22.20
2022-08-26T05:01:31.287Z,22.30
2022-08-26T05:03:58.624Z,22.20
2022-08-26T05:06:26.153Z,22.20
2022-08-26T05:08:54.144Z,22.20
2022-08-26T05:11:21.501Z,22.20
2022-08-26T05:13:48.821Z,22.20
2022-08-26T05:16:17.074Z,22.30
2022-08-26T05:18:45.630Z,22.30
2022-08-26T05:21:18.882Z,22.30
2022-08-26T05:23:46.204Z,22.40
2022-08-26T05:26:13.458Z,22.40
2022-08-26T05:28:43.646Z,22.50
2022-08-26T05:31:23.562Z,22.60
2022-08-26T05:33:50.599Z,22.60
2022-08-26T05:36:20.811Z,22.60
2022-08-26T05:38:48.737Z,22.70
2022-08-26T05:41:34.614Z,22.70
2022-08-26T05:44:06.275Z,22.70
2022-08-26T05:46:34.476Z,22.70
2022-08-26T05:49:02.287Z,22.70
2022-08-26T05:51:30.487Z,22.70
2022-08-26T05:53:58.392Z,22.80
2022-08-26T05:56:27.418Z,22.90
2022-08-26T05:58:55.998Z,22.90
2022-08-26T06:01:27.222Z,22.90
2022-08-26T06:03:57.503Z,23.00
2022-08-26T06:06:30.338Z,23.10
2022-08-26T06:08:59.450Z,23.10
2022-08-26T06:11:27.852Z,23.10
2022-08-26T06:13:58.981Z,23.10
2022-08-26T06:16:30.097Z,23.10
2022-08-26T06:18:56.764Z,23.10
2022-08-26T06:21:34.997Z,23.00
2022-08-26T06:24:26.935Z,23.10
2022-08-26T06:26:57.142Z,23.10
2022-08-26T06:29:25.762Z,23.20
2022-08-26T06:31:53.891Z,23.20
2022-08-26T06:34:20.755Z,23.30
2022-08-26T06:36:49.313Z,23.30
2022-08-26T06:39:19.731Z,23.20
2022-08-26T06:41:47.633Z,23.20
2022-08-26T06:44:15.759Z,23.30
2022-08-26T06:46:44.182Z,23.30
2022-08-26T06:49:11.640Z,23.40
2022-08-26T06:51:40.785Z,23.60
2022-08-26T06:54:08.128Z,23.70
2022-08-26T06:56:41.661Z,23.80
2022-08-26T06:59:09.866Z,23.90
2022-08-26T07:01:45.354Z,24.10
2022-08-26T07:04:15.743Z,24.10
2022-08-26T07:06:48.725Z,24.00
2022-08-26T07:09:16.779Z,24.00
2022-08-26T07:11:44.490Z,24.30
2022-08-26T07:14:12.154Z,24.40
2022-08-26T07:16:41.123Z,24.60
2022-08-26T07:19:11.206Z,24.80
2022-08-26T07:25:13.550Z,25.20
2022-08-26T07:27:40.194Z,25.20
2022-08-26T07:30:07.906Z,25.30
2022-08-26T07:32:34.719Z,25.40
2022-08-26T07:35:01.421Z,25.50
2022-08-26T07:37:28.267Z,25.60
2022-08-26T07:39:58.063Z,25.60
2022-08-26T07:42:24.819Z,25.60
2022-08-26T07:44:52.241Z,25.80
2022-08-26T07:47:25.147Z,25.80
2022-08-26T07:49:54.853Z,25.30
2022-08-26T07:52:26.354Z,25.10
2022-08-26T07:54:54.259Z,25.40
2022-08-26T07:57:21.100Z,25.60
2022-08-26T07:59:47.803Z,25.80
2022-08-26T08:02:14.557Z,25.70
2022-08-26T08:04:41.385Z,25.60
2022-08-26T08:07:11.556Z,25.60
2022-08-26T08:09:40.627Z,25.70
2022-08-26T08:12:07.833Z,25.70
2022-08-26T08:14:40.938Z,25.60
2022-08-26T08:17:08.694Z,25.60
2022-08-26T08:19:36.993Z,25.80
2022-08-26T08:22:13.314Z,26.00
2022-08-26T08:24:44.713Z,26.20
2022-08-26T08:27:11.449Z,26.30
2022-08-26T08:29:38.837Z,26.40
2022-08-26T08:32:05.753Z,26.30
2022-08-26T08:34:38.279Z,26.30
2022-08-26T08:37:08.636Z,26.10
2022-08-26T08:39:37.720Z,25.90
2022-08-26T08:42:27.023Z,26.10
2022-08-26T08:44:59.672Z,26.00
2022-08-26T08:47:39.133Z,25.90
2022-08-26T08:50:35.035Z,25.90
2022-08-26T08:53:16.479Z,26.00
2022-08-26T08:55:56.673Z,26.10
2022-08-26T08:58:34.159Z,26.10
2022-08-26T09:01:04.948Z,26.10
2022-08-26T09:03:45.534Z,26.10
2022-08-26T09:06:18.614Z,26.10
2022-08-26T09:08:50.493Z,26.00
2022-08-26T09:11:19.009Z,26.00
2022-08-26T09:13:53.349Z,26.00
2022-08-26T09:17:05.301Z,26.00
2022-08-26T09:19:51.172Z,26.10
2022-08-26T09:22:37.090Z,26.30
2022-08-26T09:25:08.035Z,26.60
2022-08-26T09:27:45.188Z,26.70
2022-08-26T09:30:35.274Z,26.80
2022-08-26T09:33:10.116Z,26.80
2022-08-26T09:35:40.655Z,26.70
2022-08-26T09:38:32.778Z,26.60
2022-08-26T09:41:06.032Z,26.60
2022-08-26T09:43:35.498Z,26.60
2022-08-26T09:46:23.189Z,26.60
2022-08-26T09:48:51.663Z,26.60
2022-08-26T09:51:26.497Z,26.60
2022-08-26T09:54:02.012Z,26.60
2022-08-26T09:56:34.235Z,26.80
2022-08-26T09:59:02.288Z,26.70
2022-08-26T10:01:30.161Z,26.50
2022-08-26T10:04:14.965Z,26.40
2022-08-26T10:07:00.343Z,26.50
2022-08-26T10:09:29.878Z,26.50
2022-08-26T10:12:00.935Z,26.60
2022-08-26T10:14:50.085Z,26.50
2022-08-26T10:17:27.273Z,26.40
2022-08-26T10:20:23.590Z,26.50
2022-08-26T10:22:56.587Z,26.50
2022-08-26T10:25:35.770Z,26.40
2022-08-26T10:28:21.656Z,26.40
2022-08-26T10:30:58.202Z,26.50
2022-08-26T10:33:25.324Z,26.60
2022-08-26T10:35:53.588Z,26.70
2022-08-26T10:38:29.378Z,26.70
2022-08-26T10:41:09.999Z,26.60
2022-08-26T10:43:42.647Z,26.70
2022-08-26T10:46:17.150Z,26.80
2022-08-26T10:48:52.954Z,26.90
2022-08-26T10:51:25.495Z,26.90
2022-08-26T10:54:06.619Z,26.90
2022-08-26T10:56:38.323Z,26.90
2022-08-26T10:59:29.417Z,27.00
2022-08-26T11:02:15.416Z,27.00
2022-08-26T11:04:53.065Z,27.10
2022-08-26T11:07:51.323Z,27.10
2022-08-26T11:10:21.293Z,27.30
2022-08-26T11:12:51.515Z,27.30
2022-08-26T11:15:20.238Z,27.30
2022-08-26T11:17:51.598Z,27.40
2022-08-26T11:20:41.512Z,27.50
2022-08-26T11:23:21.218Z,27.60
2022-08-26T11:26:12.780Z,27.50
2022-08-26T11:28:55.326Z,27.70
2022-08-26T11:31:25.299Z,27.70
2022-08-26T11:34:00.299Z,27.70
2022-08-26T11:36:45.337Z,27.80
2022-08-26T11:39:21.334Z,27.80
2022-08-26T11:41:52.931Z,27.90
2022-08-26T11:44:23.361Z,27.90
2022-08-26T11:47:11.650Z,27.90
2022-08-26T11:49:38.887Z,27.90
2022-08-26T11:52:15.622Z,27.90
2022-08-26T11:55:06.997Z,27.80
2022-08-26T11:57:35.986Z,28.00
2022-08-26T12:00:03.985Z,28.20
2022-08-26T12:02:32.505Z,28.40
2022-08-26T12:05:00.464Z,28.60
2022-08-26T12:07:29.229Z,28.80
2022-08-26T12:10:02.108Z,28.80
2022-08-26T12:12:42.419Z,28.70
2022-08-26T12:15:10.676Z,28.40
2022-08-26T12:17:38.689Z,28.30
2022-08-26T12:20:06.577Z,28.10
2022-08-26T12:22:34.971Z,28.20
2022-08-26T12:25:08.465Z,28.20
2022-08-26T12:27:41.519Z,28.30
2022-08-26T12:30:12.192Z,28.20
2022-08-26T12:32:57.486Z,28.40
2022-08-26T12:35:25.325Z,28.30
2022-08-26T12:37:53.805Z,28.20
2022-08-26T12:40:41.586Z,28.00
2022-08-26T12:43:10.137Z,28.10
2022-08-26T12:46:06.482Z,28.20
2022-08-26T12:48:36.208Z,28.50
2022-08-26T12:51:06.054Z,28.30
2022-08-26T12:53:34.729Z,28.20
2022-08-26T12:56:04.604Z,28.20
2022-08-26T12:58:36.811Z,28.20
2022-08-26T13:01:06.852Z,28.10
2022-08-26T13:03:45.651Z,28.00
2022-08-26T13:06:24.038Z,28.00
2022-08-26T13:08:57.655Z,28.00
2022-08-26T13:11:31.769Z,28.00
2022-08-26T13:14:21.185Z,28.00
2022-08-26T13:16:51.585Z,27.90
2022-08-26T13:19:22.037Z,27.80
2022-08-26T13:21:57.603Z,27.80
2022-08-26T13:24:34.687Z,27.80
2022-08-26T13:27:02.817Z,27.80
2022-08-26T13:29:29.570Z,27.80
2022-08-26T13:31:58.653Z,27.90
2022-08-26T13:34:25.493Z,27.90
2022-08-26T13:36:54.674Z,27.70
2022-08-26T13:39:22.464Z,27.60
2022-08-26T13:41:49.826Z,27.50
2022-08-26T13:44:16.750Z,27.50
2022-08-26T13:49:15.822Z,27.50
2022-08-26T13:51:42.552Z,27.50
2022-08-26T13:54:09.433Z,27.40
2022-08-26T13:56:37.388Z,27.40
2022-08-26T13:59:05.546Z,27.40
2022-08-26T14:01:35.022Z,27.30
2022-08-26T14:04:02.965Z,27.40
2022-08-26T14:06:29.979Z,27.50
2022-08-26T14:08:56.831Z,27.40
2022-08-26T14:11:24.831Z,27.50
2022-08-26T14:13:51.735Z,27.50
2022-08-26T14:16:25.380Z,27.60
2022-08-26T14:18:52.837Z,27.50
2022-08-26T14:21:19.748Z,27.60
2022-08-26T14:23:46.541Z,27.70
2022-08-26T14:26:19.039Z,27.80
2022-08-26T14:28:56.421Z,27.90
2022-08-26T14:31:23.772Z,27.80
2022-08-26T14:33:50.763Z,27.80
2022-08-26T14:36:31.227Z,27.80
2022-08-26T14:39:10.081Z,27.70
2022-08-26T14:41:56.485Z,27.70
2022-08-26T14:44:31.119Z,27.60
2022-08-26T14:47:01.003Z,27.70
2022-08-26T14:49:28.063Z,28.10
2022-08-26T14:51:55.388Z,28.60
2022-08-26T14:54:22.155Z,28.80
2022-08-26T14:56:48.839Z,28.90
2022-08-26T14:59:22.165Z,29.00
2022-08-26T15:01:49.590Z,29.20
2022-08-26T15:04:16.353Z,29.30
2022-08-26T15:06:43.246Z,29.60
2022-08-26T15:09:10.453Z,29.60
2022-08-26T15:11:37.533Z,29.40
2022-08-26T15:14:04.802Z,28.90
2022-08-26T15:16:32.348Z,28.70
2022-08-26T15:19:00.778Z,28.40
2022-08-26T15:21:27.413Z,28.00
2022-08-26T15:23:54.203Z,27.80
2022-08-26T15:26:21.403Z,27.60
2022-08-26T15:28:48.249Z,27.40
2022-08-26T15:31:15.598Z,27.30
2022-08-26T15:33:42.662Z,27.20
2022-08-26T15:36:09.977Z,27.00
2022-08-26T15:38:39.678Z,27.00
2022-08-26T15:41:08.610Z,27.00
2022-08-26T15:43:37.238Z,27.00
2022-08-26T15:46:04.759Z,26.90
2022-08-26T15:48:31.478Z,26.60
2022-08-26T15:51:00.858Z,26.50
2022-08-26T15:53:30.359Z,26.40
2022-08-26T15:55:58.167Z,26.10
2022-08-26T15:58:26.445Z,26.00
2022-08-26T16:00:54.925Z,25.90
2022-08-26T16:03:22.523Z,25.80
2022-08-26T16:05:49.406Z,25.70
2022-08-26T16:08:17.633Z,25.60
2022-08-26T16:10:50.029Z,25.60
2022-08-26T16:13:19.682Z,25.60
2022-08-26T16:15:47.823Z,25.90
2022-08-26T16:18:15.599Z,26.10
2022-08-26T16:21:02.716Z,25.90
2022-08-26T16:23:40.947Z,25.90
2022-08-26T16:26:18.912Z,25.90
2022-08-26T16:28:46.795Z,26.10
2022-08-26T16:31:14.835Z,26.10
2022-08-26T16:33:41.773Z,26.20
2022-08-26T16:36:09.341Z,26.30
2022-08-26T16:38:37.536Z,26.20
2022-08-26T16:41:05.378Z,26.30
2022-08-26T16:43:32.253Z,26.10
2022-08-26T16:45:59.071Z,26.10
2022-08-26T16:48:27.030Z,26.30
2022-08-26T16:50:55.430Z,26.30
2022-08-26T16:53:22.955Z,26.50
2022-08-26T16:55:50.573Z,26.60
2022-08-26T16:58:17.927Z,26.60
2022-08-26T17:00:45.198Z,26.50
2022-08-26T17:03:12.066Z,26.50
2022-08-26T17:05:39.131Z,26.40
2022-08-26T17:08:06.578Z,26.30
2022-08-26T17:10:33.984Z,26.10
2022-08-26T17:13:01.024Z,26.00
2022-08-26T17:15:28.385Z,25.60
2022-08-26T17:17:56.568Z,25.30
2022-08-26T17:20:24.167Z,25.00
2022-08-26T17:22:53.529Z,24.90
2022-08-26T17:25:26.543Z,24.60
2022-08-26T17:27:53.343Z,24.60
2022-08-26T17:30:21.479Z,24.50
2022-08-26T17:32:49.188Z,24.40
2022-08-26T17:35:16.831Z,24.30
2022-08-26T17:37:44.312Z,24.40
2022-08-26T17:40:15.426Z,24.30
2022-08-26T17:42:42.641Z,24.20
2022-08-26T17:45:10.169Z,24.10
2022-08-26T17:47:37.625Z,23.90
2022-08-26T17:50:06.106Z,23.70
2022-08-26T17:52:32.870Z,23.80
2022-08-26T17:54:59.515Z,23.90
2022-08-26T17:57:26.569Z,23.80
2022-08-26T17:59:53.849Z,23.70
2022-08-26T18:02:21.087Z,23.60
2022-08-26T18:04:48.483Z,23.60
2022-08-26T18:07:15.951Z,23.70
2022-08-26T18:09:42.844Z,23.80
2022-08-26T18:12:09.785Z,23.90
2022-08-26T18:14:36.581Z,24.00
2022-08-26T18:17:04.131Z,24.00
2022-08-26T18:19:31.344Z,24.00
2022-08-26T18:21:58.578Z,24.00
2022-08-26T18:24:25.402Z,23.90
2022-08-26T18:26:52.272Z,23.80
2022-08-26T18:29:19.828Z,23.70
2022-08-26T18:31:46.898Z,23.30
2022-08-26T18:34:15.448Z,23.20
2022-08-26T18:36:43.696Z,23.00
2022-08-26T18:39:12.941Z,22.90
2022-08-26T18:41:45.699Z,23.00
2022-08-26T18:44:14.404Z,22.80
2022-08-26T18:46:42.115Z,22.90
2022-08-26T18:49:10.786Z,23.20
2022-08-26T18:51:37.920Z,23.40
2022-08-26T18:54:06.737Z,23.50
2022-08-26T18:56:36.190Z,23.40
2022-08-26T18:59:04.674Z,23.30
2022-08-26T19:01:31.838Z,23.30
2022-08-26T19:04:01.211Z,23.20
2022-08-26T19:06:32.682Z,23.20
2022-08-26T19:09:00.022Z,23.20
2022-08-26T19:11:32.557Z,23.10
2022-08-26T19:14:07.126Z,23.10
2022-08-26T19:16:34.120Z,23.20
2022-08-26T19:19:01.881Z,23.30
2022-08-26T19:21:29.392Z,23.40
2022-08-26T19:23:58.912Z,23.40
2022-08-26T19:26:27.083Z,24.20
2022-08-26T19:28:53.862Z,23.20
2022-08-26T19:31:20.735Z,23.20
2022-08-26T19:33:47.522Z,23.10
2022-08-26T19:36:21.784Z,23.00
2022-08-26T19:38:48.896Z,22.90
2022-08-26T19:41:24.565Z,22.70
2022-08-26T19:43:55.705Z,22.40
2022-08-26T19:46:26.623Z,22.30
2022-08-26T19:48:55.722Z,22.30
2022-08-26T19:51:25.952Z,21.90
2022-08-26T19:53:54.740Z,22.10
2022-08-26T19:56:22.285Z,22.00
2022-08-26T19:58:50.343Z,21.90
2022-08-26T20:01:18.574Z,21.80
2022-08-26T20:03:46.140Z,21.90
2022-08-26T20:06:15.509Z,21.90
2022-08-26T20:08:43.208Z,22.00
2022-08-26T20:11:15.138Z,22.10
2022-08-26T20:13:42.750Z,22.20
2022-08-26T20:16:11.797Z,22.20
2022-08-26T20:18:59.023Z,22.20
2022-08-26T20:21:26.222Z,22.30
2022-08-26T20:24:03.308Z,22.20
2022-08-26T20:26:32.053Z,22.20
2022-08-26T20:28:59.101Z,22.40
2022-08-26T20:31:26.439Z,22.40
2022-08-26T20:33:54.101Z,22.30
2022-08-26T20:36:22.740Z,22.20
2022-08-26T20:38:50.403Z,22.20
2022-08-26T20:41:17.865Z,22.20
2022-08-26T20:43:46.215Z,22.20
2022-08-26T20:46:18.190Z,22.20
2022-08-26T20:48:46.663Z,22.30
2022-08-26T20:51:13.433Z,22.40
2022-08-26T20:53:41.238Z,22.60
2022-08-26T20:56:09.672Z,22.60
2022-08-26T20:58:37.102Z,22.60
2022-08-26T21:01:07.785Z,22.50
2022-08-26T21:03:35.816Z,22.40
2022-08-26T21:06:03.515Z,22.40
2022-08-26T21:08:30.547Z,22.40
2022-08-26T21:11:00.504Z,22.40
2022-08-26T21:13:27.300Z,22.40
2022-08-26T21:15:57.877Z,22.10
2022-08-26T21:18:24.618Z,22.10
2022-08-26T21:20:54.211Z,22.00
2022-08-26T21:23:21.062Z,22.00
2022-08-26T21:25:49.533Z,22.00
2022-08-26T21:28:16.941Z,21.90
2022-08-26T21:30:43.918Z,21.90
2022-08-26T21:33:10.714Z,22.00
2022-08-26T21:35:37.474Z,22.20
2022-08-26T21:38:04.140Z,22.20
2022-08-26T21:40:30.918Z,22.30
2022-08-26T21:42:57.657Z,22.20
2022-08-26T21:45:24.383Z,22.10
2022-08-26T21:47:51.318Z,22.00
2022-08-26T21:50:18.083Z,22.00
2022-08-26T21:52:44.715Z,22.00
2022-08-26T21:55:11.896Z,22.00
2022-08-26T21:57:38.879Z,22.00
2022-08-26T22:00:08.890Z,21.90
2022-08-26T22:02:36.966Z,21.90
2022-08-26T22:05:04.591Z,21.90
2022-08-26T22:07:31.391Z,21.90
2022-08-26T22:09:58.093Z,21.80
2022-08-26T22:12:25.282Z,21.70
2022-08-26T22:14:51.975Z,21.50
2022-08-26T22:17:18.780Z,21.50
2022-08-26T22:19:46.176Z,21.50
2022-08-26T22:22:14.327Z,21.50
2022-08-26T22:24:43.169Z,21.60
2022-08-26T22:27:11.879Z,21.70
2022-08-26T22:29:38.915Z,21.70
2022-08-26T22:32:06.291Z,21.60
2022-08-26T22:34:33.310Z,21.60
2022-08-26T22:37:00.022Z,21.80
2022-08-26T22:39:26.834Z,21.80
2022-08-26T22:41:54.362Z,21.70
2022-08-26T22:44:22.464Z,21.70
2022-08-26T22:46:52.886Z,21.80
2022-08-26T22:49:20.074Z,21.60
2022-08-26T22:51:47.167Z,21.50
2022-08-26T22:54:15.084Z,21.50
2022-08-26T22:56:42.412Z,21.50
2022-08-26T22:59:10.550Z,21.40
2022-08-26T23:01:39.932Z,21.40
2022-08-26T23:04:08.092Z,21.30
2022-08-26T23:06:36.962Z,21.30
2022-08-26T23:09:04.895Z,21.30
2022-08-26T23:11:31.948Z,21.30
2022-08-26T23:13:58.706Z,21.20
2022-08-26T23:16:28.217Z,21.30
2022-08-26T23:19:03.999Z,21.20
2022-08-26T23:21:31.005Z,21.10
2022-08-26T23:23:57.645Z,21.10
2022-08-26T23:26:24.442Z,21.10
2022-08-26T23:28:51.081Z,21.10
2022-08-26T23:31:17.786Z,21.10
2022-08-26T23:34:03.390Z,21.00
2022-08-26T23:36:30.798Z,21.10
2022-08-26T23:38:59.018Z,21.00
2022-08-26T23:41:25.978Z,21.00
2022-08-26T23:43:52.613Z,21.00
2022-08-26T23:46:19.892Z,21.00
2022-08-26T23:48:47.225Z,21.00
2022-08-26T23:51:33.061Z,20.90
2022-08-26T23:53:59.947Z,21.00
2022-08-26T23:56:26.915Z,21.00
2022-08-26T23:58:54.483Z,21.10
